AirNav   Air Wisconsin pilot careers
 
 615 users online  

KVNW Van Wert County Airport
Van Wert, Ohio, USA

GOING TO VAN WERT?


FAA INFORMATION EFFECTIVE 09 NOVEMBER 2017

Location

FAA Identifier: VNW
Lat/Long: 40-51-49.7861N / 084-36-22.8888W
40-51.829768N / 084-36.381480W
40.8638295 / -84.6063580
(estimated)
Elevation: 787.1 ft. / 239.9 m (surveyed)
Variation: 05W (2000)
From city: 2 miles SW of VAN WERT, OH
Time zone: UTC -5 (UTC -4 during Daylight Saving Time)
Zip code: 45891

Airport Operations

Airport use: Open to the public
Control tower: no
ARTCC: CHICAGO CENTER
FSS: DAYTON FLIGHT SERVICE STATION
NOTAMs facility: DAY (NOTAM-D service available)
Attendance: MON-FRI 07:00-16:00, ALL SAT-SUN PRIOR ARRANGEMENT
Pattern altitude: 1599.1 ft. MSL
Wind indicator: lighted
Segmented circle: no
Lights: ACTVT MIRL RY 09/27, REIL RYS 09 & 27 AND PAPI RYS 09 & 27 - CTAF.
Beacon: white-green (lighted land airport)
Operates sunset to sunrise.
Taxiway lights: TAXIWAY LGTS AT ENTRANCE TO RWY.

Airport Communications

CTAF/UNICOM: 123.0
WX AWOS-3: 125.175 (419-232-2967)
FORT WAYNE APPROACH: 127.2(SW/NW OF ACTIVE RWY) 132.15(SE/NE OF ACTIVE RWY)
FORT WAYNE DEPARTURE: 127.2(SW/NW OF ACTIVE RWY) 132.15(SE/NE OF ACTIVE RWY)
IC: 127.2(SW/NW OF ACTIVE RWY)
  • APCH CTL SECTORIZATION BASED UPON FORT WAYNE RWY USAGE.

Nearby radio navigation aids

VOR radial/distance  VOR name  Freq  Var
FWAr111/27.3FORT WAYNE VORTAC117.8006W
FBCr264/38.9FLAG CITY VORTAC108.2002W

 
NDB name  Hdg/Dist  Freq  Var  ID
HUNTINGTON092/38.941703WHHG .... .... --.

Airport Services

Fuel available: 100LL JET-A JET-A+
Parking: hangars and tiedowns
Airframe service: NONE
Powerplant service: NONE
Bottled oxygen: NONE
Bulk oxygen: NONE

Runway Information

Runway 9/27

Dimensions: 4000 x 75 ft. / 1219 x 23 m
Surface: asphalt, in good condition
Weight bearing capacity: 
Single wheel: 8.0
Runway edge lights: medium intensity
RUNWAY 9  RUNWAY 27
Latitude: 40-51.880430N40-51.885335N
Longitude: 084-37.001147W084-36.133452W
Elevation: 783.3 ft.785.0 ft.
Gradient: 0.1%0.1%
Traffic pattern: leftleft
Runway heading: 095 magnetic, 090 true275 magnetic, 270 true
Markings: nonprecision, in good conditionnonprecision, in good condition
Visual slope indicator: 4-light PAPI on left (3.00 degrees glide path)4-light PAPI on left (3.50 degrees glide path)
Runway end identifier lights: yesyes
Touchdown point: yes, no lightsyes, no lights
Obstructions: 5 ft. pline, 201 ft. from runway, 150 ft. left of centerline
RWY 09, 0:1 APRCH RATIO TO THLD RWY 09, DUE TO BERM/MOUND 200FT FM RWY 09 150 L
3 ft. crops, 220 ft. from runway, 240 ft. left of centerline, 6:1 slope to clear
RWY 27, 0:1 APRCH RATIO TO THLD RWY 27, DUE TO +3FT CROPS 136FT FM & EXTENDING TO THLD RWY 27, 240FT L

Runway 18/36

Dimensions: 2558 x 95 ft. / 780 x 29 m
Surface: turf, in good condition
RUNWAY 18  RUNWAY 36
Latitude: 40-51.957295N40-51.536130N
Longitude: 084-36.093500W084-36.088322W
Elevation: 781.6 ft.785.8 ft.
Gradient: 0.2%0.2%
Traffic pattern: leftleft
Runway heading: 184 magnetic, 179 true004 magnetic, 359 true
Displaced threshold: 301 ft.498 ft.
Touchdown point: yes, no lightsyes, no lights
Obstructions: 60 ft. tree, 215 ft. from runway, 25 ft. left of centerline, 3:1 slope to clear
RWY 18, 8:1 APCH RATIO TO DSPLD THLD RWY 18, DUE TO +60FT TREE 515FT FM DSPLD THLD RWY 18 25FT L
55 ft. tree, 90 ft. from runway, 40 ft. right of centerline, 1:1 slope to clear
RWY 36, 10:1 APCH RATIO TO DSPLCD THLD RWY 36 DUE TO +55FT TREE 590FT FROM DSPLCD THLD RWY 36 40FT R.

Airport Ownership and Management from official FAA records

Ownership: Publicly-owned
Owner: VAN WERT CO. REGIONAL AIRPORT AUTH.
1400 LEESON AVE
VAN WERT, OH 45891
Phone 419-232-4500
Manager: STEVE BAILEY
1400 LEESON AVE
VAN WERT, OH 45891
Phone 419-232-4500
ADNL CTC: MANAGER@VANWERTCOUNTYAIRPORT.ORG

Airport Operational Statistics

Aircraft based on the field: 23
Single engine airplanes: 21
Ultralights: 2
  • ULTRALIGHTS OPER EVNGS, WKENDS & IN NO-WIND CONDS.
    
Aircraft operations: avg 75/day *
73% local general aviation
27% transient general aviation
* for 12-month period ending 21 July 2017

Additional Remarks

RWY 36 ADNL OBST INCLUDE ROAD, TREES & BUILDINGS

Instrument Procedures

NOTE: All procedures below are presented as PDF files. If you need a reader for these files, you should download the free Adobe Reader.

NOT FOR NAVIGATION. Please procure official charts for flight.
FAA instrument procedures published for use between 9 November 2017 at 0901Z and 7 December 2017 at 0900Z.

 
IAPs - Instrument Approach Procedures
RNAV (GPS) RWY 09   download (196KB)
RNAV (GPS) RWY 27   download (195KB)
NOTE: Special Alternate Minimums apply   download (37KB)
NOTE: Special Take-Off Minimums/Departure Procedures apply   download (164KB)

Other nearby airports with instrument procedures:

KCQA - Lakefield Airport (23 nm S)
KAXV - Neil Armstrong Airport (26 nm SE)
KFWA - Fort Wayne International Airport (28 nm W)
KAOH - Lima Allen County Airport (28 nm E)
KDFI - Defiance Memorial Airport (30 nm N)
 
Loc | Ops | Rwys | IFR | FBO | Links
Com | Nav | Svcs | Stats | Notes


 
Area around KVNW (Van Wert County Airport)
 
Road maps at: MapQuest Bing Google
 
Aerial photo
WARNING: Photo may not be current or correct
Aerial photo of KVNW (Van Wert County Airport)
Photo taken 24-Jul-2006
from a Cessna 340 at 12000 ft MSL

Do you have a better or more recent aerial photo of Van Wert County Airport that you would like to share? If so, please send us your photo.

 
Sectional chart

 
Airport distance calculator
Flying to Van Wert County Airport? Find the distance to fly.

From to KVNW

Sunrise and sunset
Times for 23-Nov-2017
 Local
(UTC-5)
 Zulu
(UTC)
Morning civil twilight07:0612:06
Sunrise07:3612:36
Sunset17:1422:14
Evening civil twilight17:4422:44

Current date and time
Zulu (UTC)  24-Nov-2017 00:58:37
Local (UTC-5)  23-Nov-2017 19:58:37
 
METAR
KAXV 
26nm SE 
240053Z AUTO 18007KT 7SM CLR 01/M02 A2999 RMK AO2
KFWA 
28nm W 
240054Z 26003KT 10SM CLR 01/M03 A2999 RMK AO2 SLP165 T00061033 $
KAOH 
29nm E 
240053Z AUTO 18006KT 10SM CLR 02/M03 A2998 RMK AO2 SLP161 T00171033
KDFI 
29nm N 
240053Z AUTO 00000KT 10SM CLR 00/M04 A2999 RMK AO2 SLP166 T00001044 $
KOWX 
30nm E 
240055Z AUTO 00000KT 10SM CLR 00/ A3001 RMK AO1
KGWB 
34nm NW 
240035Z AUTO 00000KT 10SM CLR 00/M05 A2998 RMK AO2
KHHG 
39nm W 
240035Z AUTO 00000KT 10SM CLR 02/M05 A2998 RMK AO2 T00151050 TSNO
KVES 
40nm S 
240035Z AUTO 19004KT 10SM SCT002 01/M02 A2998 RMK AO2
KFDY 
44nm E 
240053Z AUTO 19006KT 10SM CLR 00/M04 A2998 RMK AO2 SLP158 T00001044
TAF
KFWA 
28nm W 
231739Z 2318/2418 22011KT P6SM SCT060 FM232300 21005KT P6SM FEW250 FM241500 20011G18KT P6SM SCT250
NOTAMs
Click for the latest NOTAMs
NOTAMs are issued by the DoD/FAA and will open in a separate window not controlled by AirNav.

 

 
 

FBO, Fuel Providers, and Aircraft Ground Support

  
 Business Name 
 
 Contact 
 
 Services / Description 
 
Fuel Prices
 
Comments
  
Van Wert County Airport 419-232-4500
no information available

If you are affiliated with Van Wert County Airport and would like to show here your services, contact info, web link, logo, and more, click here
100LL Jet A
AS $4.79 $3.79 
 Updated 21-Nov-2017
 
   2 read write
AS=Assisted/Self Service
Update Fuel Prices
 

Would you like to see your business listed on this page?

 If your business provides an interesting product or service to pilots, flight crews, aircraft, or users of the Van Wert County Airport, you should consider listing it here.  To start the listing process, click on the button below
 
Add a business
 

Other Pages about Van Wert County Airport

Update a link
 
Copyright © AirNav, LLC. All rights reserved. Privacy Policy  Contact